createdAt,value
2018-07-13T00:00:03.636Z,96247.38
2018-07-13T00:02:34.529Z,96249.45
2018-07-13T00:05:08.776Z,96245.58
2018-07-13T00:07:38.603Z,96247.84
2018-07-13T00:10:07.215Z,96244.52
2018-07-13T00:12:36.139Z,96246.64
2018-07-13T00:15:07.660Z,96248.48
2018-07-13T00:17:36.418Z,96242.98
2018-07-13T00:20:05.141Z,96244.41
2018-07-13T00:22:33.872Z,96243.27
2018-07-13T00:25:02.473Z,96246.36
2018-07-13T00:27:31.009Z,96248.05
2018-07-13T00:29:59.615Z,96241.10
2018-07-13T00:32:28.180Z,96242.55
2018-07-13T00:34:56.722Z,96245.38
2018-07-13T00:37:25.688Z,96243.58
2018-07-13T00:39:54.258Z,96251.77
2018-07-13T00:42:22.919Z,96241.27
2018-07-13T00:44:51.472Z,96246.12
2018-07-13T00:47:21.193Z,96246.59
2018-07-13T00:49:49.806Z,96247.22
2018-07-13T00:52:18.352Z,96246.94
2018-07-13T00:54:46.904Z,96251.89
2018-07-13T00:57:15.580Z,96250.13
2018-07-13T00:59:44.140Z,96253.38
2018-07-13T01:02:12.718Z,96253.06
2018-07-13T01:04:41.364Z,96264.91
2018-07-13T01:07:10.299Z,96265.41
2018-07-13T01:09:39.090Z,96259.22
2018-07-13T01:12:07.646Z,96264.75
2018-07-13T01:14:36.216Z,96260.83
2018-07-13T01:17:04.899Z,96260.13
2018-07-13T01:19:33.428Z,96259.38
2018-07-13T01:22:02.056Z,96256.55
2018-07-13T01:24:30.640Z,96261.20
2018-07-13T01:26:59.178Z,96259.77
2018-07-13T01:29:27.897Z,96257.69
2018-07-13T01:31:56.493Z,96252.31
2018-07-13T01:34:25.082Z,96261.67
2018-07-13T01:36:53.993Z,96253.14
2018-07-13T01:39:22.993Z,96259.08
2018-07-13T01:41:51.624Z,96263.33
2018-07-13T01:44:20.541Z,96257.64
2018-07-13T01:46:49.138Z,96255.88
2018-07-13T01:49:18.594Z,96259.25
2018-07-13T01:51:47.168Z,96253.61
2018-07-13T01:54:15.766Z,96258.20
2018-07-13T01:56:44.337Z,96259.37
2018-07-13T01:59:12.983Z,96256.28
2018-07-13T02:01:41.534Z,96256.13
2018-07-13T02:04:10.118Z,96259.17
2018-07-13T02:06:43.105Z,96258.98
2018-07-13T02:09:12.000Z,96253.80
2018-07-13T02:11:40.712Z,96256.13
2018-07-13T02:14:09.301Z,96255.14
2018-07-13T02:16:38.018Z,96258.05
2018-07-13T02:19:06.992Z,96258.00
2018-07-13T02:21:35.736Z,96253.41
2018-07-13T02:24:04.323Z,96255.72
2018-07-13T02:26:32.907Z,96257.95
2018-07-13T02:29:01.474Z,96258.30
2018-07-13T02:31:30.521Z,96257.02
2018-07-13T02:33:59.320Z,96255.06
2018-07-13T02:36:27.854Z,96255.57
2018-07-13T02:38:56.439Z,96259.13
2018-07-13T02:41:25.371Z,96258.15
2018-07-13T02:43:54.037Z,96252.98
2018-07-13T02:46:22.645Z,96260.23
2018-07-13T02:48:51.203Z,96257.17
2018-07-13T02:51:19.853Z,96262.82
2018-07-13T02:53:48.449Z,96263.91
2018-07-13T02:56:17.025Z,96263.23
2018-07-13T02:58:45.615Z,96269.07
2018-07-13T03:01:14.237Z,96273.97
2018-07-13T03:03:42.831Z,96268.94
2018-07-13T03:06:11.366Z,96262.49
2018-07-13T03:08:39.941Z,96271.17
2018-07-13T03:11:08.699Z,96270.02
2018-07-13T03:13:37.277Z,96266.61
2018-07-13T03:16:05.960Z,96272.25
2018-07-13T03:18:34.661Z,96272.92
2018-07-13T03:21:03.237Z,96270.53
2018-07-13T03:23:31.916Z,96278.45
2018-07-13T03:26:00.608Z,96271.54
2018-07-13T03:28:29.208Z,96267.81
2018-07-13T03:30:57.806Z,96276.39
2018-07-13T03:33:26.480Z,96277.38
2018-07-13T03:35:55.086Z,96282.59
2018-07-13T03:38:23.637Z,96279.70
2018-07-13T03:40:52.213Z,96280.42
2018-07-13T03:43:20.825Z,96294.08
2018-07-13T03:45:49.419Z,96290.19
2018-07-13T03:48:18.102Z,96292.53
2018-07-13T03:50:46.671Z,96296.01
2018-07-13T03:53:15.537Z,96305.70
2018-07-13T03:55:44.108Z,96302.92
2018-07-13T03:58:13.099Z,96305.18
2018-07-13T04:00:41.630Z,96301.72
2018-07-13T04:03:10.920Z,96299.78
2018-07-13T04:05:43.357Z,96301.40
2018-07-13T04:08:17.219Z,96294.42
2018-07-13T04:10:45.824Z,96298.29
2018-07-13T04:13:16.042Z,96298.20
2018-07-13T04:15:44.645Z,96299.64
2018-07-13T04:18:18.156Z,96299.11
2018-07-13T04:20:46.858Z,96298.49
2018-07-13T04:23:15.867Z,96299.41
2018-07-13T04:25:44.469Z,96298.48
2018-07-13T04:28:13.227Z,96299.54
2018-07-13T04:30:42.410Z,96299.61
2018-07-13T04:33:11.017Z,96298.31
2018-07-13T04:35:39.997Z,96295.78
2018-07-13T04:38:08.592Z,96292.63
2018-07-13T04:40:37.202Z,96297.86
2018-07-13T04:43:05.792Z,96303.72
2018-07-13T04:45:34.405Z,96295.05
2018-07-13T04:48:03.150Z,96294.78
2018-07-13T04:50:31.866Z,96296.28
2018-07-13T04:53:00.909Z,96289.36
2018-07-13T04:55:29.781Z,96294.58
2018-07-13T04:57:58.470Z,96289.14
2018-07-13T05:00:27.550Z,96289.06
2018-07-13T05:02:56.165Z,96294.13
2018-07-13T05:05:24.811Z,96298.99
2018-07-13T05:07:53.380Z,96296.13
2018-07-13T05:10:22.523Z,96295.19
2018-07-13T05:12:51.185Z,96288.78
2018-07-13T05:15:19.884Z,96286.86
2018-07-13T05:17:48.461Z,96287.05
2018-07-13T05:20:17.078Z,96293.74
2018-07-13T05:22:45.652Z,96294.52
2018-07-13T05:25:14.842Z,96292.58
2018-07-13T05:27:43.655Z,96289.58
2018-07-13T05:30:12.273Z,96286.85
2018-07-13T05:32:41.156Z,96280.41
2018-07-13T05:35:09.906Z,96283.50
2018-07-13T05:37:38.680Z,96274.41
2018-07-13T05:40:07.324Z,96274.94
2018-07-13T05:42:35.921Z,96280.28
2018-07-13T05:45:05.110Z,96272.34
2018-07-13T05:47:33.718Z,96274.58
2018-07-13T05:50:02.316Z,96269.84
2018-07-13T05:52:30.946Z,96273.53
2018-07-13T05:55:00.281Z,96275.30
2018-07-13T05:57:28.941Z,96276.91
2018-07-13T05:59:57.551Z,96274.44
2018-07-13T06:02:26.205Z,96276.92
2018-07-13T06:04:54.808Z,96271.67
2018-07-13T06:07:30.511Z,96285.19
2018-07-13T06:09:59.121Z,96284.41
2018-07-13T06:12:27.919Z,96281.05
2018-07-13T06:14:56.519Z,96280.21
2018-07-13T06:17:25.093Z,96281.42
2018-07-13T06:19:53.685Z,96286.52
2018-07-13T06:22:22.439Z,96280.87
2018-07-13T06:24:50.984Z,96283.94
2018-07-13T06:27:19.546Z,96285.61
2018-07-13T06:29:48.135Z,96278.31
2018-07-13T06:32:16.712Z,96279.22
2018-07-13T06:34:45.326Z,96274.44
2018-07-13T06:37:14.010Z,96272.75
2018-07-13T06:39:42.788Z,96278.41
2018-07-13T06:42:11.401Z,96280.88
2018-07-13T06:44:40.075Z,96277.97
2018-07-13T06:47:08.607Z,96272.39
2018-07-13T06:49:37.188Z,96273.63
2018-07-13T06:52:06.100Z,96279.34
2018-07-13T06:54:34.672Z,96280.89
2018-07-13T06:57:04.269Z,96280.97
2018-07-13T06:59:32.876Z,96287.05
2018-07-13T07:02:01.485Z,96286.52
2018-07-13T07:04:34.572Z,96288.30
2018-07-13T07:07:09.536Z,96301.17
2018-07-13T07:09:39.252Z,96301.47
2018-07-13T07:12:54.524Z,96301.66
2018-07-13T07:15:24.318Z,96297.78
2018-07-13T07:17:53.703Z,96300.22
2018-07-13T07:20:22.315Z,96309.86
2018-07-13T07:22:50.955Z,96306.92
2018-07-13T07:25:19.621Z,96313.03
2018-07-13T07:27:48.212Z,96302.75
2018-07-13T07:30:16.867Z,96304.58
2018-07-13T07:32:45.797Z,96308.24
2018-07-13T07:35:15.095Z,96310.75
2018-07-13T07:37:43.704Z,96308.73
2018-07-13T07:40:12.332Z,96307.85
2018-07-13T07:42:41.336Z,96305.41
2018-07-13T07:45:10.127Z,96309.33
2018-07-13T07:47:38.748Z,96312.16
2018-07-13T07:50:07.504Z,96310.31
2018-07-13T07:52:36.350Z,96317.08
2018-07-13T07:55:04.992Z,96319.20
2018-07-13T07:57:33.662Z,96323.16
2018-07-13T08:00:02.222Z,96318.97
2018-07-13T08:02:30.816Z,96314.70
2018-07-13T08:04:59.545Z,96304.36
2018-07-13T08:07:28.114Z,96311.40
2018-07-13T08:09:56.683Z,96310.58
2018-07-13T08:12:25.276Z,96303.98
2018-07-13T08:14:53.877Z,96310.23
2018-07-13T08:17:22.542Z,96299.27
2018-07-13T08:19:51.211Z,96304.09
2018-07-13T08:22:31.328Z,96312.96
2018-07-13T08:25:00.361Z,96302.70
2018-07-13T08:27:35.681Z,96298.14
2018-07-13T08:30:05.799Z,96295.41
2018-07-13T08:32:34.377Z,96303.77
2018-07-13T08:35:02.964Z,96307.91
2018-07-13T08:37:31.529Z,96298.21
2018-07-13T08:40:00.138Z,96303.70
2018-07-13T08:42:28.771Z,96304.33
2018-07-13T08:44:57.340Z,96298.47
2018-07-13T08:47:26.107Z,96291.80
2018-07-13T08:49:54.704Z,96299.77
2018-07-13T08:52:23.880Z,96299.86
2018-07-13T08:54:52.498Z,96304.55
2018-07-13T08:57:21.073Z,96307.45
2018-07-13T08:59:49.733Z,96306.28
2018-07-13T09:02:18.348Z,96304.13
2018-07-13T09:04:46.974Z,96308.08
2018-07-13T09:07:15.541Z,96301.30
2018-07-13T09:09:44.142Z,96295.99
2018-07-13T09:12:12.742Z,96291.34
2018-07-13T09:14:42.404Z,96299.52
2018-07-13T09:17:11.121Z,96290.13
2018-07-13T09:19:39.720Z,96299.09
2018-07-13T09:22:08.404Z,96289.13
2018-07-13T09:24:37.018Z,96301.20
2018-07-13T09:27:05.720Z,96297.06
2018-07-13T09:29:34.361Z,96302.52
2018-07-13T09:32:02.984Z,96304.52
2018-07-13T09:34:31.580Z,96291.41
2018-07-13T09:37:00.132Z,96292.55
2018-07-13T09:39:28.893Z,96290.05
2018-07-13T09:41:57.485Z,96286.53
2018-07-13T09:44:29.010Z,96295.95
2018-07-13T09:46:57.705Z,96294.94
2018-07-13T09:49:26.234Z,96302.94
2018-07-13T09:51:54.881Z,96304.98
2018-07-13T09:54:24.314Z,96305.45
2018-07-13T09:56:53.084Z,96304.03
2018-07-13T09:59:21.832Z,96304.34
2018-07-13T10:01:50.419Z,96303.75
2018-07-13T10:04:19.040Z,96302.14
2018-07-13T10:06:47.757Z,96316.17
2018-07-13T10:09:16.419Z,96309.47
2018-07-13T10:11:45.042Z,96311.19
2018-07-13T10:14:13.629Z,96305.66
2018-07-13T10:19:32.610Z,96306.16
2018-07-13T10:22:01.455Z,96305.13
2018-07-13T10:24:31.264Z,96321.11
2018-07-13T10:26:59.931Z,96314.63
2018-07-13T10:29:37.097Z,96320.19
2018-07-13T10:32:05.738Z,96318.98
2018-07-13T10:34:34.806Z,96317.80
2018-07-13T10:37:05.085Z,96323.20
2018-07-13T10:39:34.416Z,96328.85
2018-07-13T10:42:03.001Z,96328.23
2018-07-13T10:44:31.652Z,96324.80
2018-07-13T10:47:00.351Z,96330.58
2018-07-13T10:49:29.118Z,96329.78
2018-07-13T10:51:57.665Z,96322.03
2018-07-13T10:54:26.436Z,96326.13
2018-07-13T10:56:55.082Z,96324.14
2018-07-13T10:59:23.631Z,96324.67
2018-07-13T11:01:52.199Z,96324.69
2018-07-13T11:04:20.999Z,96330.05
2018-07-13T11:06:49.562Z,96328.82
2018-07-13T11:09:18.964Z,96328.62
2018-07-13T11:11:47.550Z,96322.45
2018-07-13T11:14:16.112Z,96327.17
2018-07-13T11:16:44.712Z,96327.38
2018-07-13T11:19:15.270Z,96329.50
2018-07-13T11:21:43.907Z,96328.59
2018-07-13T11:24:12.501Z,96325.86
2018-07-13T11:26:41.121Z,96321.84
2018-07-13T11:29:10.036Z,96325.41
2018-07-13T11:31:38.736Z,96327.01
2018-07-13T11:34:07.478Z,96324.59
2018-07-13T11:36:36.104Z,96318.73
2018-07-13T11:39:05.789Z,96319.87
2018-07-13T11:41:34.424Z,96329.25
2018-07-13T11:44:03.075Z,96320.59
2018-07-13T11:46:31.660Z,96321.56
2018-07-13T11:49:00.295Z,96319.84
2018-07-13T11:51:29.005Z,96328.33
2018-07-13T11:53:58.289Z,96322.27
2018-07-13T11:56:26.852Z,96324.80
2018-07-13T11:58:55.517Z,96326.61
2018-07-13T12:01:24.157Z,96326.60
2018-07-13T12:03:52.772Z,96322.14
2018-07-13T12:06:22.187Z,96324.39
2018-07-13T12:08:50.865Z,96327.30
2018-07-13T12:11:19.584Z,96328.88
2018-07-13T12:13:48.165Z,96320.00
2018-07-13T12:16:16.852Z,96326.03
2018-07-13T12:18:45.448Z,96325.14
2018-07-13T12:21:15.161Z,96323.93
2018-07-13T12:23:43.774Z,96325.91
2018-07-13T12:26:12.360Z,96323.73
2018-07-13T12:28:41.123Z,96312.95
2018-07-13T12:31:09.835Z,96316.11
2018-07-13T12:33:38.450Z,96315.09
2018-07-13T12:36:07.106Z,96316.33
2018-07-13T12:38:35.707Z,96310.79
2018-07-13T12:41:04.337Z,96310.47
2018-07-13T12:43:32.901Z,96310.09
2018-07-13T12:46:01.472Z,96315.42
2018-07-13T12:48:30.074Z,96318.36
2018-07-13T12:50:58.648Z,96314.72
2018-07-13T12:53:27.242Z,96322.59
2018-07-13T12:55:55.841Z,96316.94
2018-07-13T12:58:24.505Z,96316.94
2018-07-13T13:00:53.037Z,96309.97
2018-07-13T13:03:21.653Z,96311.13
2018-07-13T13:05:50.211Z,96307.77
2018-07-13T13:08:19.118Z,96313.66
2018-07-13T13:10:47.690Z,96313.00
2018-07-13T13:13:16.312Z,96317.02
2018-07-13T13:15:44.872Z,96312.59
2018-07-13T13:18:13.425Z,96311.37
2018-07-13T13:20:42.033Z,96309.25
2018-07-13T13:23:10.798Z,96305.33
2018-07-13T13:25:39.614Z,96312.64
2018-07-13T13:28:08.238Z,96305.45
2018-07-13T13:30:36.953Z,96311.69
2018-07-13T13:33:05.609Z,96308.78
2018-07-13T13:35:34.181Z,96301.65
2018-07-13T13:38:02.766Z,96297.88
2018-07-13T13:40:31.357Z,96301.03
2018-07-13T13:42:59.942Z,96301.02
2018-07-13T13:45:28.731Z,96285.79
2018-07-13T13:47:57.307Z,96293.19
2018-07-13T13:50:26.124Z,96286.41
2018-07-13T13:52:54.812Z,96288.45
2018-07-13T13:55:23.364Z,96286.92
2018-07-13T13:57:51.964Z,96290.50
2018-07-13T14:00:20.595Z,96283.89
2018-07-13T14:02:50.090Z,96277.34
2018-07-13T14:05:19.324Z,96277.91
2018-07-13T14:07:49.938Z,96270.20
2018-07-13T14:10:18.528Z,96278.83
2018-07-13T14:12:47.299Z,96280.31
2018-07-13T14:15:16.277Z,96280.42
2018-07-13T14:17:44.818Z,96279.43
2018-07-13T14:20:13.425Z,96278.83
2018-07-13T14:22:41.984Z,96279.00
2018-07-13T14:25:10.694Z,96281.41
2018-07-13T14:27:39.467Z,96280.91
2018-07-13T14:30:08.215Z,96285.34
2018-07-13T14:32:36.947Z,96280.02
2018-07-13T14:35:05.786Z,96279.48
2018-07-13T14:37:34.796Z,96281.13
2018-07-13T14:40:03.536Z,96277.14
2018-07-13T14:42:32.064Z,96278.11
2018-07-13T14:45:00.720Z,96275.70
2018-07-13T14:47:29.460Z,96277.62
2018-07-13T14:49:58.078Z,96278.75
2018-07-13T14:52:26.879Z,96276.60
2018-07-13T14:54:55.457Z,96269.05
2018-07-13T14:57:24.172Z,96274.70
2018-07-13T14:59:52.714Z,96274.27
2018-07-13T15:02:21.329Z,96276.39
2018-07-13T15:04:49.936Z,96276.19
2018-07-13T15:07:18.669Z,96275.30
2018-07-13T15:09:47.429Z,96278.11
2018-07-13T15:12:16.006Z,96274.09
2018-07-13T15:14:44.586Z,96276.19
2018-07-13T15:17:13.791Z,96269.13
2018-07-13T15:19:42.395Z,96272.97
2018-07-13T15:22:10.960Z,96278.81
2018-07-13T15:24:39.825Z,96270.75
2018-07-13T15:27:10.504Z,96267.65
2018-07-13T15:29:39.174Z,96273.53
2018-07-13T15:32:07.853Z,96269.33
2018-07-13T15:34:36.430Z,96266.47
2018-07-13T15:37:05.052Z,96270.52
2018-07-13T15:39:33.617Z,96270.55
2018-07-13T15:42:02.271Z,96265.58
2018-07-13T15:44:30.823Z,96256.30
2018-07-13T15:46:59.390Z,96257.06
2018-07-13T15:49:28.036Z,96260.26
2018-07-13T15:51:56.606Z,96258.63
2018-07-13T15:54:25.486Z,96260.41
2018-07-13T15:56:54.150Z,96263.28
2018-07-13T15:59:22.911Z,96266.19
2018-07-13T16:01:51.544Z,96254.66
2018-07-13T16:04:20.250Z,96254.48
2018-07-13T16:06:49.616Z,96245.17
2018-07-13T16:09:18.263Z,96252.98
2018-07-13T16:11:48.531Z,96250.11
2018-07-13T16:14:17.292Z,96256.25
2018-07-13T16:16:46.081Z,96254.72
2018-07-13T16:19:15.391Z,96248.91
2018-07-13T16:21:44.084Z,96251.19
2018-07-13T16:24:12.663Z,96240.48
2018-07-13T16:26:41.261Z,96243.84
2018-07-13T16:29:09.885Z,96235.51
2018-07-13T16:31:38.504Z,96238.18
2018-07-13T16:34:07.128Z,96238.12
2018-07-13T16:36:35.814Z,96236.69
2018-07-13T16:39:04.983Z,96240.67
2018-07-13T16:41:33.576Z,96232.91
2018-07-13T16:44:02.265Z,96238.05
2018-07-13T16:46:31.150Z,96239.38
2018-07-13T16:48:59.921Z,96241.92
2018-07-13T16:51:28.486Z,96243.68
2018-07-13T16:53:57.347Z,96246.49
2018-07-13T16:56:25.952Z,96247.09
2018-07-13T16:58:54.480Z,96246.94
2018-07-13T17:01:23.062Z,96240.83
2018-07-13T17:03:51.666Z,96239.86
2018-07-13T17:06:20.232Z,96235.30
2018-07-13T17:08:49.000Z,96242.29
2018-07-13T17:11:17.625Z,96244.39
2018-07-13T17:13:46.177Z,96245.36
2018-07-13T17:16:14.912Z,96245.80
2018-07-13T17:18:43.456Z,96249.30
2018-07-13T17:21:12.809Z,96249.40
2018-07-13T17:23:41.390Z,96252.77
2018-07-13T17:26:10.598Z,96251.92
2018-07-13T17:28:39.164Z,96249.95
2018-07-13T17:31:07.840Z,96251.11
2018-07-13T17:33:36.601Z,96254.05
2018-07-13T17:36:05.168Z,96250.98
2018-07-13T17:38:33.828Z,96252.59
2018-07-13T17:41:02.548Z,96253.76
2018-07-13T17:43:31.128Z,96250.25
2018-07-13T17:45:59.779Z,96252.48
2018-07-13T17:48:28.388Z,96252.03
2018-07-13T17:50:56.939Z,96249.13
2018-07-13T17:53:25.550Z,96250.54
2018-07-13T17:55:54.124Z,96252.33
2018-07-13T17:58:22.713Z,96251.31
2018-07-13T18:00:51.366Z,96251.11
2018-07-13T18:03:19.978Z,96246.75
2018-07-13T18:05:48.804Z,96249.58
2018-07-13T18:08:18.213Z,96250.20
2018-07-13T18:10:47.425Z,96246.10
2018-07-13T18:13:16.742Z,96248.69
2018-07-13T18:15:45.315Z,96249.89
2018-07-13T18:18:13.868Z,96245.98
2018-07-13T18:20:42.416Z,96242.66
2018-07-13T18:23:11.196Z,96250.45
2018-07-13T18:25:39.797Z,96251.26
2018-07-13T18:28:08.386Z,96250.43
2018-07-13T18:30:37.020Z,96258.85
2018-07-13T18:33:05.621Z,96259.28
2018-07-13T18:35:34.220Z,96254.68
2018-07-13T18:38:02.823Z,96259.53
2018-07-13T18:40:31.503Z,96261.33
2018-07-13T18:43:00.198Z,96258.65
2018-07-13T18:45:28.993Z,96266.67
2018-07-13T18:47:57.829Z,96278.40
2018-07-13T18:50:26.775Z,96272.41
2018-07-13T18:52:55.446Z,96280.92
2018-07-13T18:55:23.984Z,96275.04
2018-07-13T18:57:52.572Z,96283.83
2018-07-13T19:00:21.136Z,96285.95
2018-07-13T19:02:49.836Z,96293.61
2018-07-13T19:05:18.931Z,96292.62
2018-07-13T19:07:47.496Z,96299.75
2018-07-13T19:10:16.039Z,96302.09
2018-07-13T19:12:44.633Z,96302.78
2018-07-13T19:15:13.364Z,96315.07
2018-07-13T19:17:42.233Z,96314.06
2018-07-13T19:20:10.976Z,96313.44
2018-07-13T19:22:39.953Z,96321.50
2018-07-13T19:25:08.660Z,96321.71
2018-07-13T19:27:37.304Z,96319.44
2018-07-13T19:30:05.895Z,96324.86
2018-07-13T19:32:34.494Z,96331.81
2018-07-13T19:35:03.177Z,96340.36
2018-07-13T19:37:31.733Z,96340.75
2018-07-13T19:40:00.372Z,96343.89
2018-07-13T19:42:29.056Z,96343.81
2018-07-13T19:44:57.583Z,96338.48
2018-07-13T19:47:26.473Z,96339.78
2018-07-13T19:49:55.096Z,96338.86
2018-07-13T19:52:23.797Z,96336.43
2018-07-13T19:54:52.392Z,96343.99
2018-07-13T19:57:21.047Z,96345.48
2018-07-13T19:59:49.560Z,96346.97
2018-07-13T20:02:19.472Z,96353.50
2018-07-13T20:04:48.046Z,96350.52
2018-07-13T20:07:24.223Z,96353.50
2018-07-13T20:09:55.716Z,96358.64
2018-07-13T20:12:24.517Z,96351.66
2018-07-13T20:14:53.124Z,96352.67
2018-07-13T20:17:21.820Z,96351.58
2018-07-13T20:19:50.481Z,96349.34
2018-07-13T20:22:19.090Z,96355.31
2018-07-13T20:24:47.668Z,96356.40
2018-07-13T20:27:17.380Z,96350.06
2018-07-13T20:29:46.008Z,96351.13
2018-07-13T20:32:15.919Z,96355.75
2018-07-13T20:34:44.757Z,96355.59
2018-07-13T20:37:13.720Z,96355.20
2018-07-13T20:39:42.372Z,96350.27
2018-07-13T20:42:10.932Z,96333.11
2018-07-13T20:44:39.543Z,96353.73
2018-07-13T20:47:08.275Z,96355.33
2018-07-13T20:49:37.037Z,96359.30
2018-07-13T20:52:05.745Z,96361.16
2018-07-13T20:54:34.363Z,96363.33
2018-07-13T20:57:05.377Z,96360.68
2018-07-13T20:59:34.139Z,96356.02
2018-07-13T21:02:02.852Z,96356.24
2018-07-13T21:04:32.329Z,96363.75
2018-07-13T21:07:00.901Z,96365.44
2018-07-13T21:09:29.528Z,96364.09
2018-07-13T21:11:58.171Z,96365.45
2018-07-13T21:14:26.794Z,96367.53
2018-07-13T21:16:55.382Z,96363.77
2018-07-13T21:19:24.076Z,96367.45
2018-07-13T21:21:52.714Z,96374.70
2018-07-13T21:24:21.379Z,96367.81
2018-07-13T21:26:50.046Z,96372.91
2018-07-13T21:29:18.543Z,96369.17
2018-07-13T21:31:47.188Z,96369.05
2018-07-13T21:34:15.919Z,96372.22
2018-07-13T21:36:44.501Z,96367.26
2018-07-13T21:39:13.520Z,96366.95
2018-07-13T21:41:42.076Z,96373.80
2018-07-13T21:44:10.681Z,96371.81
2018-07-13T21:46:39.373Z,96372.46
2018-07-13T21:49:08.052Z,96367.91
2018-07-13T21:51:36.684Z,96368.55
2018-07-13T21:54:05.501Z,96366.13
2018-07-13T21:56:34.088Z,96366.98
2018-07-13T21:59:02.865Z,96370.59
2018-07-13T22:01:31.456Z,96373.19
2018-07-13T22:04:00.047Z,96375.16
2018-07-13T22:06:31.119Z,96374.97
2018-07-13T22:09:00.243Z,96369.25
2018-07-13T22:11:28.832Z,96369.08
2018-07-13T22:13:57.486Z,96363.05
2018-07-13T22:16:26.066Z,96363.35
2018-07-13T22:18:54.601Z,96364.17
2018-07-13T22:21:23.213Z,96363.44
2018-07-13T22:23:51.811Z,96362.44
2018-07-13T22:26:20.516Z,96366.17
2018-07-13T22:28:49.410Z,96364.87
2018-07-13T22:31:17.973Z,96366.65
2018-07-13T22:33:46.536Z,96364.25
2018-07-13T22:36:15.098Z,96361.69
2018-07-13T22:38:43.656Z,96364.97
2018-07-13T22:41:12.941Z,96358.44
2018-07-13T22:43:41.830Z,96356.48
2018-07-13T22:46:10.431Z,96358.27
2018-07-13T22:48:39.009Z,96358.44
2018-07-13T22:51:07.707Z,96356.02
2018-07-13T22:53:37.076Z,96356.35
2018-07-13T22:56:05.932Z,96356.69
2018-07-13T22:58:34.572Z,96359.42
2018-07-13T23:01:03.145Z,96354.88
2018-07-13T23:03:31.889Z,96357.48
2018-07-13T23:06:01.733Z,96355.88
2018-07-13T23:08:30.295Z,96360.59
2018-07-13T23:10:59.445Z,96359.59
2018-07-13T23:13:28.234Z,96362.84
2018-07-13T23:15:57.055Z,96363.02
2018-07-13T23:18:25.643Z,96363.97
2018-07-13T23:20:54.203Z,96362.35
2018-07-13T23:23:22.818Z,96362.86
2018-07-13T23:25:51.392Z,96364.78
2018-07-13T23:28:19.994Z,96367.89
2018-07-13T23:30:48.641Z,96373.91
2018-07-13T23:33:17.284Z,96375.22
2018-07-13T23:35:46.207Z,96371.47
2018-07-13T23:38:14.981Z,96368.72
2018-07-13T23:40:43.630Z,96370.69
2018-07-13T23:43:12.593Z,96376.02
2018-07-13T23:45:41.230Z,96366.59
2018-07-13T23:48:09.962Z,96366.59
2018-07-13T23:50:38.580Z,96371.45
2018-07-13T23:53:07.208Z,96372.56
2018-07-13T23:55:36.015Z,96379.05
2018-07-13T23:58:04.648Z,96386.01
